createdAt,value
2023-01-20T00:01:49.025Z,2.68
2023-01-20T00:04:20.521Z,2.79
2023-01-20T00:06:49.198Z,2.74
2023-01-20T00:09:18.678Z,2.72
2023-01-20T00:11:47.327Z,2.65
2023-01-20T00:14:15.979Z,2.58
2023-01-20T00:16:44.608Z,2.46
2023-01-20T00:19:14.762Z,2.37
2023-01-20T00:21:43.579Z,2.30
2023-01-20T00:24:12.267Z,2.40
2023-01-20T00:26:40.948Z,2.58
2023-01-20T00:29:10.109Z,2.67
2023-01-20T00:31:38.975Z,2.72
2023-01-20T00:34:07.723Z,2.72
2023-01-20T00:36:36.769Z,2.64
2023-01-20T00:39:06.210Z,2.49
2023-01-20T00:41:34.808Z,2.48
2023-01-20T00:44:03.297Z,2.28
2023-01-20T00:46:31.838Z,2.08
2023-01-20T00:49:00.353Z,1.94
2023-01-20T00:51:28.949Z,1.89
2023-01-20T00:53:57.371Z,1.88
2023-01-20T00:56:26.682Z,2.00
2023-01-20T00:58:58.041Z,2.08
2023-01-20T01:01:26.717Z,2.08
2023-01-20T01:03:55.129Z,2.07
2023-01-20T01:06:24.024Z,2.09
2023-01-20T01:08:53.327Z,2.18
2023-01-20T01:11:21.882Z,2.21
2023-01-20T01:13:50.287Z,2.27
2023-01-20T01:16:18.980Z,2.17
2023-01-20T01:18:47.476Z,2.12
2023-01-20T01:21:17.533Z,2.09
2023-01-20T01:23:46.129Z,2.22
2023-01-20T01:26:15.208Z,2.36
2023-01-20T01:28:43.808Z,2.35
2023-01-20T01:31:12.384Z,2.41
2023-01-20T01:33:41.030Z,2.54
2023-01-20T01:36:14.057Z,2.48
2023-01-20T01:38:43.588Z,2.52
2023-01-20T01:41:14.252Z,2.52
2023-01-20T01:44:10.568Z,2.59
2023-01-20T01:46:40.671Z,2.55
2023-01-20T01:49:24.954Z,2.57
2023-01-20T01:52:03.542Z,2.66
2023-01-20T01:54:37.428Z,2.74
2023-01-20T01:57:08.228Z,2.76
2023-01-20T01:59:38.497Z,2.80
2023-01-20T02:02:07.046Z,2.79
2023-01-20T02:04:35.633Z,2.67
2023-01-20T02:07:10.598Z,2.56
2023-01-20T02:09:39.497Z,2.57
2023-01-20T02:12:17.862Z,2.58
2023-01-20T02:14:51.276Z,2.55
2023-01-20T02:17:56.144Z,2.51
2023-01-20T02:20:53.481Z,2.50
2023-01-20T02:23:59.869Z,2.58
2023-01-20T02:26:46.572Z,2.27
2023-01-20T02:29:47.060Z,2.28
2023-01-20T02:32:30.674Z,2.28
2023-01-20T02:35:15.210Z,2.34
2023-01-20T02:38:02.317Z,2.42
2023-01-20T02:40:41.637Z,2.64
2023-01-20T02:43:38.970Z,2.67
2023-01-20T02:46:33.385Z,2.67
2023-01-20T02:49:15.193Z,2.65
2023-01-20T02:52:02.596Z,2.71
2023-01-20T02:54:34.133Z,2.77
2023-01-20T02:57:07.262Z,2.71
2023-01-20T02:59:41.789Z,2.69
2023-01-20T03:02:15.951Z,2.61
2023-01-20T03:05:04.113Z,2.64
2023-01-20T03:07:36.368Z,2.71
2023-01-20T03:10:10.188Z,2.61
2023-01-20T03:13:03.329Z,2.61
2023-01-20T03:15:59.576Z,2.62
2023-01-20T03:18:34.846Z,2.58
2023-01-20T03:21:05.685Z,2.52
2023-01-20T03:23:38.279Z,2.28
2023-01-20T03:26:10.315Z,2.15
2023-01-20T03:28:39.306Z,2.05
2023-01-20T03:31:18.122Z,2.08
2023-01-20T03:33:48.732Z,2.29
2023-01-20T03:36:20.979Z,2.41
2023-01-20T03:38:49.920Z,2.51
2023-01-20T03:41:46.034Z,2.57
2023-01-20T03:44:22.481Z,2.60
2023-01-20T03:46:54.029Z,2.60
2023-01-20T03:50:04.026Z,2.67
2023-01-20T03:52:47.191Z,2.67
2023-01-20T03:55:24.898Z,2.54
2023-01-20T03:58:06.706Z,2.51
2023-01-20T04:00:38.723Z,2.43
2023-01-20T04:03:12.712Z,2.43
2023-01-20T04:05:43.550Z,2.40
2023-01-20T04:08:14.954Z,2.49
2023-01-20T04:10:47.389Z,2.56
2023-01-20T04:13:16.571Z,2.63
2023-01-20T04:15:46.566Z,2.49
2023-01-20T04:18:22.828Z,2.53
2023-01-20T04:20:58.285Z,2.45
2023-01-20T04:23:33.130Z,2.50
2023-01-20T04:26:01.800Z,2.55
2023-01-20T04:28:30.435Z,2.62
2023-01-20T04:30:59.092Z,2.72
2023-01-20T04:33:27.780Z,2.86
2023-01-20T04:35:56.239Z,2.96
2023-01-20T04:38:24.777Z,2.91
2023-01-20T04:40:53.406Z,2.80
2023-01-20T04:43:21.906Z,2.98
2023-01-20T04:45:50.463Z,2.98
2023-01-20T04:48:18.932Z,3.07
2023-01-20T04:50:47.512Z,3.19
2023-01-20T04:53:19.483Z,3.33
2023-01-20T04:55:48.130Z,3.37
2023-01-20T04:58:16.571Z,3.35
2023-01-20T05:00:45.223Z,3.42
2023-01-20T05:03:13.879Z,3.39
2023-01-20T05:05:42.535Z,3.25
2023-01-20T05:08:11.019Z,3.10
2023-01-20T05:10:39.482Z,3.06
2023-01-20T05:13:07.927Z,2.98
2023-01-20T05:15:36.443Z,3.01
2023-01-20T05:18:04.951Z,3.11
2023-01-20T05:20:33.407Z,3.22
2023-01-20T05:23:02.327Z,3.20
2023-01-20T05:25:30.776Z,3.27
2023-01-20T05:28:00.888Z,3.29
2023-01-20T05:30:29.385Z,3.28
2023-01-20T05:32:57.919Z,3.23
2023-01-20T05:35:26.487Z,3.20
2023-01-20T05:37:56.040Z,3.32
2023-01-20T05:40:24.610Z,3.40
2023-01-20T05:42:53.045Z,3.47
2023-01-20T05:45:21.568Z,3.58
2023-01-20T05:47:55.509Z,3.62
2023-01-20T05:50:25.901Z,3.44
2023-01-20T05:52:54.493Z,3.49
2023-01-20T05:55:23.098Z,3.55
2023-01-20T05:57:51.588Z,3.58
2023-01-20T06:00:20.541Z,3.52
2023-01-20T06:02:48.941Z,3.12
2023-01-20T06:05:18.084Z,2.98
2023-01-20T06:07:46.963Z,2.98
2023-01-20T06:10:16.994Z,2.97
2023-01-20T06:12:53.325Z,3.07
2023-01-20T06:15:24.177Z,3.13
2023-01-20T06:17:55.228Z,3.20
2023-01-20T06:20:23.878Z,3.13
2023-01-20T06:22:56.237Z,3.20
2023-01-20T06:25:24.725Z,3.14
2023-01-20T06:27:53.148Z,3.13
2023-01-20T06:30:21.791Z,3.04
2023-01-20T06:32:50.242Z,2.99
2023-01-20T06:35:18.767Z,2.99
2023-01-20T06:37:47.491Z,3.14
2023-01-20T06:40:17.285Z,3.46
2023-01-20T06:42:45.681Z,3.63
2023-01-20T06:45:14.412Z,3.60
2023-01-20T06:47:43.034Z,3.60
2023-01-20T06:50:11.657Z,3.66
2023-01-20T06:52:40.042Z,3.55
2023-01-20T06:55:08.777Z,3.56
2023-01-20T06:57:37.216Z,3.50
2023-01-20T07:00:06.858Z,3.37
2023-01-20T07:02:35.521Z,3.37
2023-01-20T07:05:08.328Z,3.46
2023-01-20T07:07:36.932Z,3.47
2023-01-20T07:10:06.656Z,3.43
2023-01-20T07:12:35.108Z,3.54
2023-01-20T07:15:03.975Z,3.60
2023-01-20T07:17:32.507Z,3.77
2023-01-20T07:20:01.191Z,3.54
2023-01-20T07:22:29.692Z,3.35
2023-01-20T07:24:58.159Z,3.54
2023-01-20T07:27:26.712Z,3.43
2023-01-20T07:29:55.199Z,3.44
2023-01-20T07:32:23.870Z,3.64
2023-01-20T07:34:52.303Z,3.74
2023-01-20T07:37:20.749Z,3.77
2023-01-20T07:39:49.220Z,3.99
2023-01-20T07:42:17.644Z,3.92
2023-01-20T07:44:46.182Z,3.92
2023-01-20T07:47:14.592Z,3.96
2023-01-20T07:49:43.031Z,4.15
2023-01-20T07:52:11.682Z,4.09
2023-01-20T07:54:40.145Z,4.15
2023-01-20T07:57:09.556Z,4.32
2023-01-20T07:59:38.222Z,4.35
2023-01-20T08:02:06.710Z,4.41
2023-01-20T08:04:35.279Z,4.42
2023-01-20T08:07:03.966Z,4.59
2023-01-20T08:09:32.438Z,4.60
2023-01-20T08:12:02.497Z,4.45
2023-01-20T08:14:31.015Z,4.49
2023-01-20T08:17:00.579Z,4.59
2023-01-20T08:19:30.230Z,4.54
2023-01-20T08:21:58.796Z,4.66
2023-01-20T08:24:27.405Z,4.41
2023-01-20T08:26:55.921Z,4.50
2023-01-20T08:29:24.471Z,4.87
2023-01-20T08:31:53.145Z,4.83
2023-01-20T08:34:23.536Z,4.52
2023-01-20T08:36:54.395Z,4.57
2023-01-20T08:39:23.537Z,4.71
2023-01-20T08:41:52.343Z,4.95
2023-01-20T08:44:21.576Z,5.17
2023-01-20T08:46:52.885Z,5.39
2023-01-20T08:49:23.683Z,5.45
2023-01-20T08:51:52.420Z,5.49
2023-01-20T08:54:22.334Z,5.67
2023-01-20T08:56:52.723Z,5.63
2023-01-20T08:59:22.886Z,5.82
2023-01-20T09:01:51.436Z,5.85
2023-01-20T09:04:20.036Z,5.55
2023-01-20T09:06:50.588Z,5.59
2023-01-20T09:09:21.619Z,5.63
2023-01-20T09:11:53.137Z,5.71
2023-01-20T09:14:24.821Z,5.95
2023-01-20T09:16:53.534Z,6.07
2023-01-20T09:19:22.327Z,6.06
2023-01-20T09:21:50.793Z,6.03
2023-01-20T09:24:19.204Z,6.15
2023-01-20T09:26:49.432Z,6.04
2023-01-20T09:29:20.999Z,6.12
2023-01-20T09:31:58.582Z,6.19
2023-01-20T09:34:29.769Z,6.12
2023-01-20T09:37:19.977Z,6.33
2023-01-20T09:40:07.552Z,6.40
2023-01-20T09:42:54.687Z,6.33
2023-01-20T09:45:35.759Z,6.41
2023-01-20T09:48:51.642Z,6.29
2023-01-20T09:51:51.591Z,6.33
2023-01-20T09:54:29.361Z,6.31
2023-01-20T09:57:01.115Z,6.22
2023-01-20T09:59:55.830Z,6.19
2023-01-20T10:02:30.005Z,6.26
2023-01-20T10:05:08.113Z,6.28
2023-01-20T10:07:55.782Z,6.22
2023-01-20T10:11:09.254Z,6.23
2023-01-20T10:13:51.925Z,6.20
2023-01-20T10:16:49.010Z,6.39
2023-01-20T10:19:22.224Z,6.20
2023-01-20T10:22:02.767Z,6.44
2023-01-20T10:24:47.704Z,6.54
2023-01-20T10:27:16.284Z,6.62
2023-01-20T10:29:56.171Z,6.67
2023-01-20T10:32:42.435Z,6.87
2023-01-20T10:35:19.112Z,7.09
2023-01-20T10:37:48.095Z,6.86
2023-01-20T10:40:35.384Z,6.75
2023-01-20T10:43:13.191Z,6.83
2023-01-20T10:46:12.317Z,6.77
2023-01-20T10:49:18.400Z,6.67
2023-01-20T10:52:12.558Z,6.73
2023-01-20T10:55:01.002Z,6.53
2023-01-20T10:57:29.564Z,6.29
2023-01-20T11:00:03.390Z,6.53
2023-01-20T11:02:35.287Z,6.67
2023-01-20T11:05:22.976Z,6.88
2023-01-20T11:07:54.397Z,6.98
2023-01-20T11:10:29.921Z,6.66
2023-01-20T11:13:01.180Z,6.69
2023-01-20T11:15:32.768Z,6.69
2023-01-20T11:18:16.859Z,6.62
2023-01-20T11:20:53.024Z,6.54
2023-01-20T11:23:41.162Z,6.70
2023-01-20T11:26:19.651Z,6.70
2023-01-20T11:28:55.761Z,6.57
2023-01-20T11:31:40.623Z,6.42
2023-01-20T11:34:26.706Z,6.37
2023-01-20T11:37:07.818Z,6.32
2023-01-20T11:40:00.528Z,6.33
2023-01-20T11:42:41.536Z,6.39
2023-01-20T11:45:23.515Z,6.46
2023-01-20T11:48:01.506Z,6.64
2023-01-20T11:50:37.008Z,6.57
2023-01-20T11:53:29.254Z,6.57
2023-01-20T11:56:15.208Z,6.49
2023-01-20T11:58:51.760Z,6.50
2023-01-20T12:01:29.378Z,6.48
2023-01-20T12:04:04.319Z,6.41
2023-01-20T12:06:43.467Z,6.49
2023-01-20T12:09:20.299Z,6.80
2023-01-20T12:12:06.915Z,6.88
2023-01-20T12:14:49.426Z,6.84
2023-01-20T12:17:39.528Z,6.80
2023-01-20T12:20:25.145Z,6.94
2023-01-20T12:23:06.205Z,7.03
2023-01-20T12:25:46.536Z,6.93
2023-01-20T12:28:41.037Z,6.97
2023-01-20T12:31:13.999Z,7.00
2023-01-20T12:33:48.680Z,6.78
2023-01-20T12:36:33.431Z,6.93
2023-01-20T12:39:29.535Z,6.93
2023-01-20T12:42:10.086Z,6.66
2023-01-20T12:44:59.124Z,6.72
2023-01-20T12:47:46.660Z,6.80
2023-01-20T12:50:43.507Z,6.70
2023-01-20T12:53:39.218Z,6.61
2023-01-20T12:56:48.922Z,6.66
2023-01-20T12:59:38.472Z,6.72
2023-01-20T13:02:28.472Z,6.98
2023-01-20T13:05:10.688Z,7.11
2023-01-20T13:08:17.572Z,7.10
2023-01-20T13:11:01.332Z,7.24
2023-01-20T13:14:00.853Z,7.25
2023-01-20T13:16:42.709Z,7.11
2023-01-20T13:19:19.955Z,6.93
2023-01-20T13:22:06.605Z,7.06
2023-01-20T13:24:37.080Z,7.35
2023-01-20T13:27:06.213Z,7.49
2023-01-20T13:29:37.536Z,7.55
2023-01-20T13:32:33.547Z,7.29
2023-01-20T13:35:24.283Z,7.14
2023-01-20T13:37:55.731Z,7.07
2023-01-20T13:40:36.128Z,6.92
2023-01-20T13:43:26.609Z,6.95
2023-01-20T13:46:04.154Z,7.06
2023-01-20T13:48:34.331Z,7.18
2023-01-20T13:51:29.957Z,7.30
2023-01-20T13:54:23.059Z,7.28
2023-01-20T13:56:52.717Z,7.34
2023-01-20T13:59:21.202Z,7.32
2023-01-20T14:01:49.667Z,7.26
2023-01-20T14:04:20.649Z,7.39
2023-01-20T14:06:52.575Z,7.46
2023-01-20T14:09:26.446Z,7.50
2023-01-20T14:11:57.451Z,7.38
2023-01-20T14:14:27.305Z,7.40
2023-01-20T14:16:57.038Z,7.47
2023-01-20T14:19:32.973Z,7.50
2023-01-20T14:22:18.117Z,7.44
2023-01-20T14:24:53.185Z,7.49
2023-01-20T14:27:24.168Z,7.27
2023-01-20T14:29:55.315Z,7.15
2023-01-20T14:32:30.346Z,7.04
2023-01-20T14:34:59.864Z,7.45
2023-01-20T14:37:35.155Z,7.47
2023-01-20T14:40:26.798Z,7.58
2023-01-20T14:43:16.958Z,7.45
2023-01-20T14:45:51.900Z,7.21
2023-01-20T14:48:33.730Z,7.02
2023-01-20T14:51:04.550Z,7.06
2023-01-20T14:53:33.477Z,6.92
2023-01-20T14:56:08.417Z,6.93
2023-01-20T14:58:45.649Z,6.90
2023-01-20T15:01:26.063Z,6.93
2023-01-20T15:04:00.289Z,6.68
2023-01-20T15:06:29.216Z,6.63
2023-01-20T15:09:06.449Z,6.55
2023-01-20T15:11:36.717Z,6.44
2023-01-20T15:14:11.219Z,6.32
2023-01-20T15:16:47.805Z,6.23
2023-01-20T15:19:20.274Z,6.02
2023-01-20T15:21:56.609Z,6.11
2023-01-20T15:24:34.899Z,6.06
2023-01-20T15:27:19.703Z,6.12
2023-01-20T15:30:13.717Z,6.10
2023-01-20T15:32:42.528Z,6.12
2023-01-20T15:35:15.991Z,6.05
2023-01-20T15:37:44.813Z,6.22
2023-01-20T15:40:15.642Z,6.47
2023-01-20T15:42:45.228Z,6.56
2023-01-20T15:45:15.339Z,6.58
2023-01-20T15:47:45.584Z,6.61
2023-01-20T15:50:22.562Z,6.62
2023-01-20T15:52:51.360Z,6.64
2023-01-20T15:55:20.285Z,6.54
2023-01-20T15:57:52.179Z,6.50
2023-01-20T16:00:23.085Z,6.47
2023-01-20T16:02:52.323Z,6.49
2023-01-20T16:05:21.320Z,6.36
2023-01-20T16:07:50.555Z,6.34
2023-01-20T16:10:20.304Z,5.99
2023-01-20T16:12:48.875Z,6.01
2023-01-20T16:15:18.383Z,5.85
2023-01-20T16:17:46.890Z,5.92
2023-01-20T16:20:22.957Z,5.83
2023-01-20T16:22:52.069Z,5.92
2023-01-20T16:25:21.768Z,6.10
2023-01-20T16:27:51.142Z,6.29
2023-01-20T16:30:21.761Z,6.20
2023-01-20T16:32:50.936Z,6.07
2023-01-20T16:35:23.791Z,6.03
2023-01-20T16:37:53.066Z,6.07
2023-01-20T16:40:22.699Z,6.08
2023-01-20T16:42:55.150Z,5.96
2023-01-20T16:45:27.401Z,6.16
2023-01-20T16:47:57.233Z,6.08
2023-01-20T16:50:28.644Z,5.92
2023-01-20T16:52:57.381Z,5.93
2023-01-20T16:55:25.906Z,5.99
2023-01-20T16:57:54.499Z,6.20
2023-01-20T17:00:23.671Z,6.11
2023-01-20T17:02:53.617Z,5.97
2023-01-20T17:05:25.709Z,5.86
2023-01-20T17:07:59.310Z,6.27
2023-01-20T17:10:30.338Z,6.35
2023-01-20T17:12:59.395Z,6.36
2023-01-20T17:15:28.341Z,6.10
2023-01-20T17:17:58.585Z,6.01
2023-01-20T17:20:28.576Z,5.72
2023-01-20T17:22:57.186Z,5.41
2023-01-20T17:25:26.099Z,5.14
2023-01-20T17:27:54.802Z,5.16
2023-01-20T17:30:26.124Z,5.07
2023-01-20T17:32:55.054Z,4.83
2023-01-20T17:35:23.557Z,4.84
2023-01-20T17:37:52.054Z,4.82
2023-01-20T17:40:21.217Z,4.88
2023-01-20T17:42:53.407Z,4.87
2023-01-20T17:45:21.952Z,4.98
2023-01-20T17:47:52.490Z,4.89
2023-01-20T17:50:21.045Z,4.76
2023-01-20T17:52:50.981Z,4.86
2023-01-20T17:55:19.462Z,4.83
2023-01-20T17:57:50.889Z,4.88
2023-01-20T18:00:19.670Z,4.94
2023-01-20T18:02:48.229Z,5.09
2023-01-20T18:05:17.450Z,5.16
2023-01-20T18:07:46.090Z,5.02
2023-01-20T18:10:14.852Z,4.98
2023-01-20T18:12:43.809Z,5.02
2023-01-20T18:15:12.293Z,5.10
2023-01-20T18:17:43.606Z,5.45
2023-01-20T18:20:13.001Z,5.46
2023-01-20T18:22:48.413Z,5.23
2023-01-20T18:25:18.579Z,5.13
2023-01-20T18:27:47.144Z,5.15
2023-01-20T18:30:16.205Z,4.95
2023-01-20T18:32:44.856Z,4.81
2023-01-20T18:35:13.355Z,4.84
2023-01-20T18:37:42.116Z,4.83
2023-01-20T18:40:11.741Z,4.90
2023-01-20T18:42:40.860Z,4.39
2023-01-20T18:45:09.856Z,4.31
2023-01-20T18:47:38.509Z,4.27
2023-01-20T18:50:07.314Z,4.30
2023-01-20T18:52:35.815Z,4.38
2023-01-20T18:55:04.495Z,4.46
2023-01-20T18:57:33.136Z,4.10
2023-01-20T19:00:01.585Z,4.27
2023-01-20T19:02:30.437Z,4.30
2023-01-20T19:04:59.109Z,4.33
2023-01-20T19:07:27.643Z,4.15
2023-01-20T19:09:56.108Z,4.44
2023-01-20T19:12:24.570Z,4.21
2023-01-20T19:14:55.085Z,4.25
2023-01-20T19:17:24.053Z,4.35
2023-01-20T19:19:52.614Z,4.17
2023-01-20T19:22:21.059Z,4.24
2023-01-20T19:24:49.595Z,4.29
2023-01-20T19:27:18.224Z,4.19
2023-01-20T19:29:48.404Z,4.14
2023-01-20T19:32:16.904Z,4.31
2023-01-20T19:34:45.969Z,4.28
2023-01-20T19:37:14.502Z,4.22
2023-01-20T19:39:42.946Z,4.45
2023-01-20T19:42:11.369Z,4.44
2023-01-20T19:44:39.933Z,4.45
2023-01-20T19:47:08.419Z,4.26
2023-01-20T19:49:37.034Z,4.17
2023-01-20T19:52:05.973Z,4.14
2023-01-20T19:54:34.735Z,4.07
2023-01-20T19:57:03.487Z,4.18
2023-01-20T19:59:32.090Z,4.36
2023-01-20T20:02:00.685Z,4.56
2023-01-20T20:04:29.233Z,4.83
2023-01-20T20:06:57.755Z,4.98
2023-01-20T20:09:26.364Z,4.47
2023-01-20T20:11:56.339Z,4.41
2023-01-20T20:14:27.455Z,4.37
2023-01-20T20:16:55.954Z,4.46
2023-01-20T20:19:25.243Z,4.43
2023-01-20T20:21:58.824Z,4.27
2023-01-20T20:24:27.270Z,4.26
2023-01-20T20:26:55.794Z,4.11
2023-01-20T20:29:24.458Z,3.92
2023-01-20T20:31:52.896Z,4.18
2023-01-20T20:34:21.614Z,4.30
2023-01-20T20:36:50.021Z,4.22
2023-01-20T20:39:19.913Z,4.10
2023-01-20T20:41:48.559Z,4.45
2023-01-20T20:44:17.100Z,4.62
2023-01-20T20:46:45.866Z,4.33
2023-01-20T20:49:16.070Z,4.29
2023-01-20T20:51:44.979Z,4.19
2023-01-20T20:54:15.542Z,4.00
2023-01-20T20:56:45.280Z,4.06
2023-01-20T20:59:14.009Z,4.29
2023-01-20T21:01:42.717Z,4.28
2023-01-20T21:04:11.919Z,4.04
2023-01-20T21:06:40.524Z,4.32
2023-01-20T21:09:09.781Z,4.04
2023-01-20T21:11:38.685Z,3.97
2023-01-20T21:14:07.787Z,4.03
2023-01-20T21:16:36.521Z,4.02
2023-01-20T21:19:05.519Z,4.01
2023-01-20T21:21:34.222Z,3.97
2023-01-20T21:24:02.938Z,3.99
2023-01-20T21:26:31.462Z,3.99
2023-01-20T21:29:04.070Z,4.12
2023-01-20T21:31:34.840Z,3.95
2023-01-20T21:34:04.034Z,4.21
2023-01-20T21:36:34.248Z,4.16
2023-01-20T21:39:02.949Z,4.24
2023-01-20T21:41:32.121Z,4.21
2023-01-20T21:44:19.209Z,4.14
2023-01-20T21:46:47.720Z,4.26
2023-01-20T21:49:34.856Z,4.37
2023-01-20T21:52:22.167Z,4.57
2023-01-20T21:54:50.846Z,4.37
2023-01-20T21:57:21.348Z,4.43
2023-01-20T21:59:49.807Z,4.50
2023-01-20T22:02:18.637Z,4.19
2023-01-20T22:04:47.983Z,3.75
2023-01-20T22:07:18.091Z,3.80
2023-01-20T22:09:46.854Z,4.01
2023-01-20T22:12:15.412Z,4.01
2023-01-20T22:14:44.070Z,3.98
2023-01-20T22:17:13.429Z,4.16
2023-01-20T22:19:41.952Z,4.00
2023-01-20T22:22:10.769Z,4.08
2023-01-20T22:24:39.237Z,3.99
2023-01-20T22:27:07.778Z,3.90
2023-01-20T22:29:36.335Z,3.71
2023-01-20T22:32:05.152Z,3.88
2023-01-20T22:34:33.628Z,4.02
2023-01-20T22:37:02.678Z,4.09
2023-01-20T22:39:31.127Z,4.04
2023-01-20T22:41:59.660Z,4.19
2023-01-20T22:44:28.104Z,4.50
2023-01-20T22:46:56.560Z,4.27
2023-01-20T22:49:25.159Z,4.26
2023-01-20T22:51:55.436Z,4.11
2023-01-20T22:54:23.883Z,4.18
2023-01-20T22:56:52.440Z,4.29
2023-01-20T22:59:20.871Z,4.15
2023-01-20T23:01:49.387Z,4.34
2023-01-20T23:04:17.921Z,4.21
2023-01-20T23:06:46.439Z,4.31
2023-01-20T23:09:15.714Z,4.26
2023-01-20T23:11:44.345Z,4.35
2023-01-20T23:14:13.085Z,4.13
2023-01-20T23:16:42.852Z,3.94
2023-01-20T23:19:11.851Z,3.97
2023-01-20T23:21:40.712Z,3.99
2023-01-20T23:24:09.872Z,4.21
2023-01-20T23:26:38.393Z,4.26
2023-01-20T23:29:06.894Z,4.23
2023-01-20T23:31:35.666Z,4.25
2023-01-20T23:34:04.453Z,4.34
2023-01-20T23:36:33.427Z,4.33
2023-01-20T23:39:01.897Z,4.45
2023-01-20T23:41:30.415Z,4.43
2023-01-20T23:43:58.931Z,4.38
2023-01-20T23:46:27.551Z,4.29
2023-01-20T23:48:56.036Z,4.45
2023-01-20T23:51:24.531Z,4.31
2023-01-20T23:53:52.997Z,4.24
2023-01-20T23:56:24.042Z,4.15
2023-01-20T23:58:52.827Z,4.12
